Private Wetterstation Sandau
Wetterdaten: Sonntag, 10.06.2012
Datum Zeit Temp. A. Feuchte A. Luftdruck Regen Wind Richtung Richtung Taupunkt Windchill
10.06.2012 00:01 15,7 C 50 % 1013,3 hPa 0,0 l/m 2,9 km/h (1 Bft) W 270 5,3 C 15,7 C
10.06.2012 00:06 15,8 C 50 % 1013,4 hPa 0,0 l/m 4,0 km/h (1 Bft) W 270 5,4 C 15,8 C
10.06.2012 00:11 15,8 C 50 % 1013,4 hPa 0,0 l/m 4,7 km/h (1 Bft) W-SW 247 5,4 C 15,8 C
10.06.2012 00:16 15,9 C 50 % 1013,4 hPa 0,0 l/m 5,8 km/h (2 Bft) W 270 5,5 C 15,9 C
10.06.2012 00:21 15,9 C 50 % 1013,4 hPa 0,0 l/m 5,4 km/h (1 Bft) W-SW 247 5,5 C 15,9 C
10.06.2012 00:26 15,9 C 50 % 1013,4 hPa 0,0 l/m 5,0 km/h (1 Bft) W-SW 247 5,5 C 15,9 C
10.06.2012 00:31 15,9 C 50 % 1013,4 hPa 0,0 l/m 5,0 km/h (1 Bft) SW 225 5,5 C 15,9 C
10.06.2012 00:36 15,9 C 50 % 1013,5 hPa 0,0 l/m 5,0 km/h (1 Bft) W-SW 247 5,5 C 15,9 C
10.06.2012 00:41 15,9 C 50 % 1013,4 hPa 0,0 l/m 6,1 km/h (2 Bft) W-SW 247 5,5 C 15,9 C
10.06.2012 00:46 15,9 C 50 % 1013,4 hPa 0,0 l/m 4,7 km/h (1 Bft) W-SW 247 5,5 C 15,9 C
10.06.2012 00:51 15,9 C 50 % 1013,4 hPa 0,0 l/m 3,6 km/h (1 Bft) W 270 5,5 C 15,9 C
10.06.2012 00:56 15,9 C 50 % 1013,5 hPa 0,0 l/m 3,6 km/h (1 Bft) W-SW 247 5,5 C 15,9 C
10.06.2012 01:01 15,9 C 50 % 1013,4 hPa 0,0 l/m 5,0 km/h (1 Bft) W 270 5,5 C 15,9 C
10.06.2012 01:06 15,9 C 50 % 1013,4 hPa 0,0 l/m 2,9 km/h (1 Bft) W-SW 247 5,5 C 15,9 C
10.06.2012 01:11 15,9 C 50 % 1013,4 hPa 0,0 l/m 4,0 km/h (1 Bft) W-SW 247 5,5 C 15,9 C
10.06.2012 01:16 15,8 C 51 % 1013,4 hPa 0,0 l/m 2,2 km/h (1 Bft) S-SW 202 5,7 C 15,8 C
10.06.2012 01:21 15,8 C 51 % 1013,4 hPa 0,0 l/m 0,0 km/h (0 Bft) SO 135 5,7 C 15,8 C
10.06.2012 01:26 15,8 C 52 % 1013,4 hPa 0,0 l/m 1,8 km/h (1 Bft) SO 135 6,0 C 15,8 C
10.06.2012 01:31 15,6 C 52 % 1013,4 hPa 0,0 l/m 2,5 km/h (1 Bft) SO 135 5,8 C 15,6 C
10.06.2012 01:36 15,5 C 53 % 1013,2 hPa 0,0 l/m 3,2 km/h (1 Bft) S 180 6,0 C 15,5 C
10.06.2012 01:41 15,4 C 53 % 1013,4 hPa 0,0 l/m 3,2 km/h (1 Bft) SO 135 5,9 C 15,4 C
10.06.2012 01:46 15,3 C 53 % 1013,3 hPa 0,0 l/m 1,4 km/h (1 Bft) S-SO 157 5,8 C 15,3 C
10.06.2012 01:51 15,2 C 54 % 1013,1 hPa 0,0 l/m 3,2 km/h (1 Bft) SO 135 6,0 C 15,2 C
10.06.2012 01:56 15,2 C 54 % 1013,1 hPa 0,0 l/m 2,5 km/h (1 Bft) S 180 6,0 C 15,2 C
10.06.2012 02:01 15,2 C 54 % 1013,2 hPa 0,0 l/m 3,2 km/h (1 Bft) S-SO 157 6,0 C 15,2 C
10.06.2012 02:06 15,1 C 55 % 1013,0 hPa 0,0 l/m 2,2 km/h (1 Bft) S-SO 157 6,1 C 15,1 C
10.06.2012 02:11 15,0 C 55 % 1013,0 hPa 0,0 l/m 2,5 km/h (1 Bft) S-SO 157 6,0 C 15,0 C
10.06.2012 02:16 14,9 C 55 % 1013,1 hPa 0,0 l/m 1,8 km/h (1 Bft) S 180 5,9 C 14,9 C
10.06.2012 02:21 14,9 C 55 % 1013,1 hPa 0,0 l/m 2,2 km/h (1 Bft) S 180 5,9 C 14,9 C
10.06.2012 02:26 14,9 C 55 % 1013,0 hPa 0,0 l/m 2,2 km/h (1 Bft) S 180 5,9 C 14,9 C
10.06.2012 02:31 14,9 C 56 % 1013,0 hPa 0,0 l/m 4,3 km/h (1 Bft) S 180 6,2 C 14,9 C
10.06.2012 02:36 14,9 C 56 % 1012,9 hPa 0,0 l/m 1,8 km/h (1 Bft) SO 135 6,2 C 14,9 C
10.06.2012 02:41 14,9 C 57 % 1012,8 hPa 0,0 l/m 4,7 km/h (1 Bft) S-SO 157 6,5 C 14,9 C
10.06.2012 02:46 14,9 C 57 % 1012,9 hPa 0,0 l/m 5,8 km/h (2 Bft) S-SO 157 6,5 C 14,9 C
10.06.2012 02:51 14,9 C 57 % 1012,9 hPa 0,0 l/m 1,8 km/h (1 Bft) S 180 6,5 C 14,9 C
10.06.2012 02:56 14,9 C 58 % 1012,8 hPa 0,0 l/m 3,2 km/h (1 Bft) S-SO 157 6,7 C 14,9 C
10.06.2012 03:01 14,9 C 58 % 1012,9 hPa 0,0 l/m 2,5 km/h (1 Bft) SO 135 6,7 C 14,9 C
10.06.2012 03:06 14,9 C 58 % 1012,8 hPa 0,0 l/m 3,6 km/h (1 Bft) S-SO 157 6,7 C 14,9 C
10.06.2012 03:11 14,8 C 58 % 1013,0 hPa 0,0 l/m 4,0 km/h (1 Bft) S 180 6,6 C 14,8 C
10.06.2012 03:16 14,8 C 58 % 1013,0 hPa 0,0 l/m 4,3 km/h (1 Bft) S 180 6,6 C 14,8 C
10.06.2012 03:21 14,8 C 58 % 1013,1 hPa 0,0 l/m 3,2 km/h (1 Bft) S-SO 157 6,6 C 14,8 C
10.06.2012 03:26 14,7 C 59 % 1013,1 hPa 0,0 l/m 5,0 km/h (1 Bft) S 180 6,8 C 14,7 C
10.06.2012 03:31 14,6 C 59 % 1013,1 hPa 0,0 l/m 2,5 km/h (1 Bft) SO 135 6,7 C 14,6 C
10.06.2012 03:36 14,6 C 59 % 1013,2 hPa 0,0 l/m 5,8 km/h (2 Bft) S-SO 157 6,7 C 14,6 C
10.06.2012 03:41 14,5 C 60 % 1013,1 hPa 0,0 l/m 5,0 km/h (1 Bft) S-SW 202 6,8 C 14,5 C
10.06.2012 03:46 14,3 C 60 % 1013,1 hPa 0,0 l/m 4,3 km/h (1 Bft) S-SO 157 6,6 C 14,3 C
10.06.2012 03:51 14,2 C 60 % 1013,2 hPa 0,0 l/m 4,7 km/h (1 Bft) S 180 6,5 C 14,2 C
10.06.2012 03:56 14,1 C 60 % 1013,2 hPa 0,0 l/m 5,4 km/h (1 Bft) S-SO 157 6,5 C 14,1 C
10.06.2012 04:01 13,9 C 61 % 1013,2 hPa 0,0 l/m 0,0 km/h (0 Bft) S 180 6,5 C 13,9 C
10.06.2012 04:06 13,9 C 61 % 1013,1 hPa 0,0 l/m 3,6 km/h (1 Bft) S 180 6,5 C 13,9 C
10.06.2012 04:11 13,8 C 61 % 1013,2 hPa 0,0 l/m 2,5 km/h (1 Bft) S-SO 157 6,4 C 13,8 C
10.06.2012 04:16 13,7 C 61 % 1013,1 hPa 0,0 l/m 4,7 km/h (1 Bft) S-SO 157 6,3 C 13,7 C
10.06.2012 04:21 13,6 C 62 % 1013,1 hPa 0,0 l/m 3,2 km/h (1 Bft) S-SW 202 6,5 C 13,6 C
10.06.2012 04:26 13,5 C 62 % 1013,1 hPa 0,0 l/m 6,5 km/h (2 Bft) S-SO 157 6,4 C 13,5 C
10.06.2012 04:31 13,4 C 62 % 1013,0 hPa 0,0 l/m 3,6 km/h (1 Bft) S-SW 202 6,3 C 13,4 C
10.06.2012 04:36 13,3 C 62 % 1013,0 hPa 0,0 l/m 0,0 km/h (0 Bft) S-SO 157 6,2 C 13,3 C
10.06.2012 04:41 13,3 C 62 % 1012,9 hPa 0,0 l/m 4,0 km/h (1 Bft) S-SO 157 6,2 C 13,3 C
10.06.2012 04:46 13,2 C 63 % 1012,8 hPa 0,0 l/m 5,4 km/h (1 Bft) S-SO 157 6,3 C 13,2 C
10.06.2012 04:51 13,1 C 63 % 1012,8 hPa 0,0 l/m 3,2 km/h (1 Bft) S-SO 157 6,2 C 13,1 C
10.06.2012 04:56 12,9 C 64 % 1012,8 hPa 0,0 l/m 0,0 km/h (0 Bft) S-SO 157 6,3 C 12,9 C
10.06.2012 05:01 12,9 C 64 % 1012,9 hPa 0,0 l/m 3,2 km/h (1 Bft) S 180 6,3 C 12,9 C
10.06.2012 05:06 12,9 C 64 % 1012,9 hPa 0,0 l/m 5,0 km/h (1 Bft) S 180 6,3 C 12,9 C
10.06.2012 05:11 12,8 C 65 % 1013,0 hPa 0,0 l/m 2,2 km/h (1 Bft) S-SO 157 6,4 C 12,8 C
10.06.2012 05:16 12,8 C 65 % 1013,1 hPa 0,0 l/m 4,0 km/h (1 Bft) S-SO 157 6,4 C 12,8 C
10.06.2012 05:21 12,7 C 65 % 1013,2 hPa 0,0 l/m 3,2 km/h (1 Bft) S-SO 157 6,3 C 12,7 C
10.06.2012 05:26 12,6 C 65 % 1013,3 hPa 0,0 l/m 4,0 km/h (1 Bft) S 180 6,2 C 12,6 C
10.06.2012 05:31 12,5 C 66 % 1013,3 hPa 0,0 l/m 2,9 km/h (1 Bft) SO 135 6,3 C 12,5 C
10.06.2012 05:36 12,4 C 66 % 1013,2 hPa 0,0 l/m 2,2 km/h (1 Bft) S 180 6,2 C 12,4 C
10.06.2012 05:41 12,5 C 66 % 1013,3 hPa 0,0 l/m 4,0 km/h (1 Bft) S-SO 157 6,3 C 12,5 C
10.06.2012 05:46 12,8 C 67 % 1013,3 hPa 0,0 l/m 2,2 km/h (1 Bft) SO 135 6,8 C 12,8 C
10.06.2012 05:51 13,1 C 68 % 1013,4 hPa 0,0 l/m 8,3 km/h (2 Bft) S-SO 157 7,3 C 13,1 C
10.06.2012 05:56 13,3 C 66 % 1013,3 hPa 0,0 l/m 6,1 km/h (2 Bft) S-SW 202 7,1 C 13,3 C
10.06.2012 06:01 13,3 C 66 % 1013,4 hPa 0,0 l/m 4,7 km/h (1 Bft) S-SW 202 7,1 C 13,3 C
10.06.2012 06:06 13,2 C 66 % 1013,3 hPa 0,0 l/m 0,0 km/h (0 Bft) S 180 7,0 C 13,2 C
10.06.2012 06:11 13,1 C 66 % 1013,2 hPa 0,0 l/m 3,6 km/h (1 Bft) SW 225 6,9 C 13,1 C
10.06.2012 06:16 13,3 C 66 % 1013,1 hPa 0,0 l/m 4,0 km/h (1 Bft) S-SW 202 7,1 C 13,3 C
10.06.2012 06:21 13,4 C 66 % 1013,0 hPa 0,0 l/m 3,6 km/h (1 Bft) S-SW 202 7,2 C 13,4 C
10.06.2012 06:26 13,7 C 65 % 1013,0 hPa 0,0 l/m 2,2 km/h (1 Bft) S-SO 157 7,2 C 13,7 C
10.06.2012 06:31 13,9 C 64 % 1013,0 hPa 0,0 l/m 0,0 km/h (0 Bft) S 180 7,2 C 13,9 C
10.06.2012 06:36 14,1 C 64 % 1013,1 hPa 0,0 l/m 6,5 km/h (2 Bft) SO 135 7,4 C 14,1 C
10.06.2012 06:41 14,4 C 64 % 1013,0 hPa 0,0 l/m 0,0 km/h (0 Bft) S 180 7,7 C 14,4 C
10.06.2012 06:46 14,6 C 64 % 1013,0 hPa 0,0 l/m 3,2 km/h (1 Bft) S-SO 157 7,9 C 14,6 C
10.06.2012 06:51 14,8 C 63 % 1013,0 hPa 0,0 l/m 4,7 km/h (1 Bft) S 180 7,8 C 14,8 C
10.06.2012 06:56 14,9 C 63 % 1013,0 hPa 0,0 l/m 5,4 km/h (1 Bft) S-SO 157 7,9 C 14,9 C
10.06.2012 07:01 15,2 C 63 % 1013,0 hPa 0,0 l/m 2,2 km/h (1 Bft) S 180 8,2 C 15,2 C
10.06.2012 07:06 15,5 C 62 % 1013,0 hPa 0,0 l/m 4,0 km/h (1 Bft) S 180 8,3 C 15,5 C
10.06.2012 07:11 15,8 C 61 % 1013,0 hPa 0,0 l/m 5,0 km/h (1 Bft) S 180 8,3 C 15,8 C
10.06.2012 07:16 16,1 C 61 % 1013,0 hPa 0,0 l/m 3,2 km/h (1 Bft) S 180 8,6 C 16,1 C
10.06.2012 07:21 16,3 C 60 % 1013,0 hPa 0,0 l/m 3,2 km/h (1 Bft) S-SW 202 8,5 C 16,3 C
10.06.2012 07:26 16,6 C 59 % 1013,0 hPa 0,0 l/m 5,8 km/h (2 Bft) S-SW 202 8,6 C 16,6 C
10.06.2012 07:31 16,8 C 58 % 1013,1 hPa 0,0 l/m 6,8 km/h (2 Bft) W 270 8,5 C 16,8 C
10.06.2012 07:36 16,9 C 57 % 1013,1 hPa 0,0 l/m 5,0 km/h (1 Bft) W 270 8,3 C 16,9 C
10.06.2012 07:41 16,9 C 56 % 1013,1 hPa 0,0 l/m 5,4 km/h (1 Bft) W 270 8,1 C 16,9 C
10.06.2012 07:46 17,0 C 57 % 1013,1 hPa 0,0 l/m 14,4 km/h (3 Bft) W-SW 247 8,4 C 17,0 C
10.06.2012 07:51 17,1 C 56 % 1013,1 hPa 0,0 l/m 11,5 km/h (2 Bft) W 270 8,3 C 17,1 C
10.06.2012 07:56 17,2 C 56 % 1013,1 hPa 0,0 l/m 4,3 km/h (1 Bft) SW 225 8,3 C 17,2 C
10.06.2012 08:01 17,3 C 55 % 1013,1 hPa 0,0 l/m 13,3 km/h (3 Bft) W-SW 247 8,2 C 17,3 C
10.06.2012 08:06 17,2 C 55 % 1013,0 hPa 0,0 l/m 6,5 km/h (2 Bft) SW 225 8,1 C 17,2 C
10.06.2012 08:11 17,3 C 55 % 1013,0 hPa 0,0 l/m 6,1 km/h (2 Bft) W-NW 292 8,2 C 17,3 C
10.06.2012 08:16 17,4 C 55 % 1013,1 hPa 0,0 l/m 10,4 km/h (2 Bft) W-SW 247 8,3 C 17,4 C
10.06.2012 08:21 17,5 C 56 % 1013,1 hPa 0,0 l/m 4,7 km/h (1 Bft) W-SW 247 8,6 C 17,5 C
10.06.2012 08:26 17,6 C 56 % 1013,0 hPa 0,0 l/m 6,1 km/h (2 Bft) W 270 8,7 C 17,6 C
10.06.2012 08:31 17,6 C 55 % 1013,1 hPa 0,0 l/m 7,9 km/h (2 Bft) W 270 8,5 C 17,6 C
10.06.2012 08:36 17,8 C 55 % 1013,2 hPa 0,0 l/m 4,0 km/h (1 Bft) W-SW 247 8,6 C 17,8 C
10.06.2012 08:41 17,9 C 54 % 1013,1 hPa 0,0 l/m 9,7 km/h (2 Bft) S-SW 202 8,5 C 17,9 C
10.06.2012 08:46 18,1 C 54 % 1013,2 hPa 0,0 l/m 11,2 km/h (2 Bft) W-SW 247 8,6 C 18,1 C
10.06.2012 08:51 18,3 C 52 % 1013,2 hPa 0,0 l/m 3,6 km/h (1 Bft) W-SW 247 8,3 C 18,3 C
10.06.2012 08:56 18,4 C 52 % 1013,1 hPa 0,0 l/m 12,2 km/h (2 Bft) S 180 8,4 C 18,4 C
10.06.2012 09:01 18,5 C 52 % 1013,1 hPa 0,0 l/m 6,1 km/h (2 Bft) S 180 8,5 C 18,5 C
10.06.2012 09:06 18,8 C 51 % 1013,1 hPa 0,0 l/m 12,2 km/h (2 Bft) S-SW 202 8,4 C 18,8 C
10.06.2012 09:11 18,9 C 51 % 1013,1 hPa 0,0 l/m 9,0 km/h (2 Bft) S 180 8,5 C 18,9 C
10.06.2012 09:16 19,1 C 50 % 1013,0 hPa 0,0 l/m 10,4 km/h (2 Bft) W-NW 292 8,4 C 19,1 C
10.06.2012 09:21 19,1 C 50 % 1013,0 hPa 0,0 l/m 4,7 km/h (1 Bft) S 180 8,4 C 19,1 C
10.06.2012 09:26 19,0 C 49 % 1013,1 hPa 0,0 l/m 14,4 km/h (3 Bft) S 180 8,0 C 19,0 C
10.06.2012 09:31 18,9 C 49 % 1012,9 hPa 0,0 l/m 10,4 km/h (2 Bft) W-SW 247 7,9 C 18,9 C
10.06.2012 09:36 18,7 C 49 % 1012,9 hPa 0,0 l/m 11,9 km/h (2 Bft) SW 225 7,8 C 18,7 C
10.06.2012 09:41 18,8 C 49 % 1012,9 hPa 0,0 l/m 8,6 km/h (2 Bft) W-SW 247 7,9 C 18,8 C
10.06.2012 09:46 18,9 C 49 % 1012,9 hPa 0,0 l/m 13,7 km/h (3 Bft) W 270 7,9 C 18,9 C
10.06.2012 09:51 18,9 C 48 % 1012,8 hPa 0,0 l/m 8,6 km/h (2 Bft) SW 225 7,6 C 18,9 C
10.06.2012 09:56 19,0 C 48 % 1012,9 hPa 0,0 l/m 10,8 km/h (2 Bft) S-SW 202 7,7 C 19,0 C
10.06.2012 10:01 19,1 C 47 % 1012,8 hPa 0,0 l/m 8,3 km/h (2 Bft) S-SW 202 7,5 C 19,1 C
10.06.2012 10:06 19,1 C 46 % 1012,7 hPa 0,0 l/m 16,9 km/h (3 Bft) W-SW 247 7,2 C 19,1 C
10.06.2012 10:11 19,0 C 46 % 1012,8 hPa 0,0 l/m 5,8 km/h (2 Bft) SW 225 7,1 C 19,0 C
10.06.2012 10:16 18,9 C 46 % 1012,8 hPa 0,0 l/m 22,3 km/h (4 Bft) W-SW 247 7,0 C 18,9 C
10.06.2012 10:21 18,9 C 46 % 1012,7 hPa 0,0 l/m 4,7 km/h (1 Bft) W-NW 292 7,0 C 18,9 C
10.06.2012 10:26 18,9 C 46 % 1012,6 hPa 0,0 l/m 10,8 km/h (2 Bft) W-SW 247 7,0 C 18,9 C
10.06.2012 10:31 18,9 C 46 % 1012,6 hPa 0,0 l/m 7,9 km/h (2 Bft) SW 225 7,0 C 18,9 C
10.06.2012 10:36 19,1 C 46 % 1012,5 hPa 0,0 l/m 8,3 km/h (2 Bft) W-SW 247 7,2 C 19,1 C
10.06.2012 10:41 19,2 C 47 % 1012,4 hPa 0,0 l/m 9,4 km/h (2 Bft) W-SW 247 7,6 C 19,2 C
10.06.2012 10:46 19,4 C 46 % 1012,5 hPa 0,0 l/m 5,8 km/h (2 Bft) W 270 7,5 C 19,4 C
10.06.2012 10:51 19,6 C 46 % 1012,4 hPa 0,0 l/m 13,7 km/h (3 Bft) S 180 7,7 C 19,6 C
10.06.2012 10:56 19,8 C 46 % 1012,5 hPa 0,0 l/m 7,9 km/h (2 Bft) W-SW 247 7,8 C 19,8 C
10.06.2012 11:01 19,9 C 45 % 1012,3 hPa 0,0 l/m 9,0 km/h (2 Bft) S-SW 202 7,6 C 19,9 C
10.06.2012 11:06 19,9 C 45 % 1012,2 hPa 0,0 l/m 9,4 km/h (2 Bft) SW 225 7,6 C 19,9 C
10.06.2012 11:11 19,9 C 45 % 1012,4 hPa 0,0 l/m 10,1 km/h (2 Bft) S-SO 157 7,6 C 19,9 C
10.06.2012 11:16 20,1 C 45 % 1012,2 hPa 0,0 l/m 6,5 km/h (2 Bft) W-SW 247 7,8 C 20,1 C
10.06.2012 11:21 20,2 C 45 % 1012,2 hPa 0,0 l/m 7,9 km/h (2 Bft) S-SW 202 7,9 C 20,2 C
10.06.2012 11:26 20,3 C 45 % 1012,2 hPa 0,0 l/m 9,0 km/h (2 Bft) W-SW 247 8,0 C 20,3 C
10.06.2012 11:31 20,5 C 45 % 1012,2 hPa 0,0 l/m 14,8 km/h (3 Bft) S 180 8,2 C 20,5 C
10.06.2012 11:36 20,8 C 44 % 1012,2 hPa 0,0 l/m 10,1 km/h (2 Bft) S-SW 202 8,1 C 20,8 C
10.06.2012 11:41 20,9 C 44 % 1012,2 hPa 0,0 l/m 9,0 km/h (2 Bft) SW 225 8,2 C 20,9 C
10.06.2012 11:46 20,8 C 42 % 1012,0 hPa 0,0 l/m 4,0 km/h (1 Bft) W-SW 247 7,4 C 20,8 C
10.06.2012 11:51 20,6 C 43 % 1012,1 hPa 0,0 l/m 12,2 km/h (2 Bft) W-SW 247 7,6 C 20,6 C
10.06.2012 11:56 20,8 C 43 % 1011,9 hPa 0,0 l/m 13,7 km/h (3 Bft) S 180 7,8 C 20,8 C
10.06.2012 12:01 20,9 C 43 % 1012,0 hPa 0,0 l/m 7,2 km/h (2 Bft) W-SW 247 7,8 C 20,9 C
10.06.2012 12:06 20,9 C 43 % 1012,0 hPa 0,0 l/m 16,9 km/h (3 Bft) W-SW 247 7,8 C 20,9 C
10.06.2012 12:11 20,8 C 43 % 1012,0 hPa 0,0 l/m 6,5 km/h (2 Bft) W-SW 247 7,8 C 20,8 C
10.06.2012 12:16 21,0 C 43 % 1012,0 hPa 0,0 l/m 8,3 km/h (2 Bft) SW 225 7,9 C 21,0 C
10.06.2012 12:21 21,2 C 42 % 1011,9 hPa 0,0 l/m 7,2 km/h (2 Bft) W-SW 247 7,8 C 21,2 C
10.06.2012 12:26 21,2 C 43 % 1011,7 hPa 0,0 l/m 16,6 km/h (3 Bft) SW 225 8,1 C 21,2 C
10.06.2012 12:31 21,3 C 42 % 1011,8 hPa 0,0 l/m 10,4 km/h (2 Bft) W 270 7,9 C 21,3 C
10.06.2012 12:36 21,3 C 42 % 1011,8 hPa 0,0 l/m 6,5 km/h (2 Bft) NW 315 7,9 C 21,3 C
10.06.2012 12:41 21,2 C 41 % 1011,8 hPa 0,0 l/m 9,4 km/h (2 Bft) S 180 7,4 C 21,2 C
10.06.2012 12:46 21,1 C 42 % 1011,8 hPa 0,0 l/m 9,4 km/h (2 Bft) W-SW 247 7,7 C 21,1 C
10.06.2012 12:51 20,9 C 43 % 1011,9 hPa 0,0 l/m 6,8 km/h (2 Bft) W 270 7,8 C 20,9 C
10.06.2012 12:56 21,0 C 42 % 1011,8 hPa 0,0 l/m 2,5 km/h (1 Bft) W 270 7,6 C 21,0 C
10.06.2012 13:01 20,9 C 43 % 1011,6 hPa 0,0 l/m 7,6 km/h (2 Bft) S 180 7,8 C 20,9 C
10.06.2012 13:06 21,2 C 43 % 1011,4 hPa 0,0 l/m 9,7 km/h (2 Bft) S 180 8,1 C 21,2 C
10.06.2012 13:11 21,5 C 42 % 1011,4 hPa 0,0 l/m 10,4 km/h (2 Bft) W-SW 247 8,0 C 21,5 C
10.06.2012 13:16 21,7 C 41 % 1011,4 hPa 0,0 l/m 11,9 km/h (2 Bft) W-NW 292 7,9 C 21,7 C
10.06.2012 13:21 21,9 C 41 % 1011,3 hPa 0,0 l/m 8,3 km/h (2 Bft) S-SO 157 8,0 C 21,9 C
10.06.2012 13:26 22,1 C 40 % 1011,3 hPa 0,0 l/m 13,0 km/h (3 Bft) W-NW 292 7,9 C 22,1 C
10.06.2012 13:31 22,1 C 41 % 1011,2 hPa 0,0 l/m 8,6 km/h (2 Bft) W 270 8,2 C 22,1 C
10.06.2012 13:36 22,1 C 41 % 1011,4 hPa 0,0 l/m 22,0 km/h (4 Bft) W-NW 292 8,2 C 22,1 C
10.06.2012 13:41 21,8 C 41 % 1011,3 hPa 0,0 l/m 9,0 km/h (2 Bft) W-SW 247 8,0 C 21,8 C
10.06.2012 13:46 21,9 C 41 % 1011,3 hPa 0,0 l/m 10,4 km/h (2 Bft) W 270 8,0 C 21,9 C
10.06.2012 13:51 21,8 C 41 % 1011,3 hPa 0,0 l/m 2,5 km/h (1 Bft) W-SW 247 8,0 C 21,8 C
10.06.2012 13:56 21,6 C 40 % 1011,3 hPa 0,0 l/m 2,9 km/h (1 Bft) W-SW 247 7,4 C 21,6 C
10.06.2012 14:01 21,4 C 41 % 1011,1 hPa 0,0 l/m 4,0 km/h (1 Bft) W-NW 292 7,6 C 21,4 C
10.06.2012 14:06 21,5 C 41 % 1011,0 hPa 0,0 l/m 19,1 km/h (3 Bft) W-SW 247 7,7 C 21,5 C
10.06.2012 14:11 21,5 C 42 % 1011,0 hPa 0,0 l/m 12,2 km/h (2 Bft) W-NW 292 8,0 C 21,5 C
10.06.2012 14:16 21,4 C 41 % 1011,0 hPa 0,0 l/m 7,6 km/h (2 Bft) W-NW 292 7,6 C 21,4 C
10.06.2012 14:21 21,3 C 42 % 1011,0 hPa 0,0 l/m 4,3 km/h (1 Bft) W 270 7,9 C 21,3 C
10.06.2012 14:26 21,4 C 42 % 1011,0 hPa 0,0 l/m 9,0 km/h (2 Bft) W-SW 247 8,0 C 21,4 C
10.06.2012 14:31 21,6 C 42 % 1011,1 hPa 0,0 l/m 4,7 km/h (1 Bft) N-NO 22 8,1 C 21,6 C
10.06.2012 14:36 21,8 C 42 % 1011,0 hPa 0,0 l/m 7,9 km/h (2 Bft) W-NW 292 8,3 C 21,8 C
10.06.2012 14:41 21,9 C 41 % 1011,0 hPa 0,0 l/m 3,6 km/h (1 Bft) W-SW 247 8,0 C 21,9 C
10.06.2012 14:46 22,1 C 41 % 1010,9 hPa 0,0 l/m 9,4 km/h (2 Bft) W-NW 292 8,2 C 22,1 C
10.06.2012 14:51 22,3 C 41 % 1010,9 hPa 0,0 l/m 12,6 km/h (3 Bft) SW 225 8,4 C 22,3 C
10.06.2012 14:56 22,5 C 40 % 1010,7 hPa 0,0 l/m 3,6 km/h (1 Bft) W 270 8,2 C 22,5 C
10.06.2012 15:01 22,5 C 40 % 1010,9 hPa 0,0 l/m 3,6 km/h (1 Bft) NW 315 8,2 C 22,5 C
10.06.2012 15:06 22,6 C 40 % 1010,8 hPa 0,0 l/m 4,7 km/h (1 Bft) W 270 8,3 C 22,6 C
10.06.2012 15:11 22,8 C 39 % 1010,8 hPa 0,0 l/m 10,8 km/h (2 Bft) S-SW 202 8,1 C 22,8 C
10.06.2012 15:16 22,9 C 39 % 1010,6 hPa 0,0 l/m 4,7 km/h (1 Bft) W-NW 292 8,2 C 22,9 C
10.06.2012 15:21 22,9 C 39 % 1010,5 hPa 0,0 l/m 2,5 km/h (1 Bft) NW 315 8,2 C 22,9 C
10.06.2012 15:26 22,9 C 39 % 1010,6 hPa 0,0 l/m 15,8 km/h (3 Bft) NW 315 8,2 C 22,9 C
10.06.2012 15:31 22,9 C 40 % 1010,5 hPa 0,0 l/m 5,4 km/h (1 Bft) SW 225 8,6 C 22,9 C
10.06.2012 15:36 22,8 C 40 % 1010,3 hPa 0,0 l/m 3,6 km/h (1 Bft) W-NW 292 8,5 C 22,8 C
10.06.2012 15:41 22,4 C 40 % 1010,4 hPa 0,0 l/m 7,6 km/h (2 Bft) NW 315 8,1 C 22,4 C
10.06.2012 15:46 22,0 C 40 % 1010,3 hPa 0,0 l/m 7,6 km/h (2 Bft) W-NW 292 7,8 C 22,0 C
10.06.2012 15:51 22,0 C 41 % 1010,3 hPa 0,0 l/m 8,3 km/h (2 Bft) NW 315 8,1 C 22,0 C
10.06.2012 15:56 21,9 C 41 % 1010,2 hPa 0,0 l/m 4,3 km/h (1 Bft) W 270 8,0 C 21,9 C
10.06.2012 16:01 21,8 C 41 % 1010,2 hPa 0,0 l/m 2,9 km/h (1 Bft) NW 315 8,0 C 21,8 C
10.06.2012 16:06 22,1 C 42 % 1010,2 hPa 0,0 l/m 2,5 km/h (1 Bft) W-NW 292 8,6 C 22,1 C
10.06.2012 16:11 22,2 C 41 % 1010,2 hPa 0,0 l/m 5,8 km/h (2 Bft) NW 315 8,3 C 22,2 C
10.06.2012 16:16 22,0 C 41 % 1010,3 hPa 0,0 l/m 9,0 km/h (2 Bft) W 270 8,1 C 22,0 C
10.06.2012 16:21 22,1 C 41 % 1010,1 hPa 0,0 l/m 9,0 km/h (2 Bft) W-SW 247 8,2 C 22,1 C
10.06.2012 16:26 22,4 C 41 % 1010,1 hPa 0,0 l/m 9,0 km/h (2 Bft) W 270 8,5 C 22,4 C
10.06.2012 16:31 22,8 C 40 % 1010,1 hPa 0,0 l/m 1,4 km/h (1 Bft) W-NW 292 8,5 C 22,8 C
10.06.2012 16:36 22,9 C 40 % 1010,0 hPa 0,0 l/m 10,4 km/h (2 Bft) W-NW 292 8,6 C 22,9 C
10.06.2012 16:41 22,8 C 39 % 1009,9 hPa 0,0 l/m 2,2 km/h (1 Bft) O-NO 67 8,1 C 22,8 C
10.06.2012 16:46 22,6 C 40 % 1009,9 hPa 0,0 l/m 3,6 km/h (1 Bft) W-NW 292 8,3 C 22,6 C
10.06.2012 16:51 22,7 C 40 % 1009,8 hPa 0,0 l/m 5,8 km/h (2 Bft) W 270 8,4 C 22,7 C
10.06.2012 16:56 22,8 C 40 % 1009,8 hPa 0,0 l/m 8,3 km/h (2 Bft) W-NW 292 8,5 C 22,8 C
10.06.2012 17:01 22,8 C 40 % 1009,8 hPa 0,0 l/m 13,0 km/h (3 Bft) W-NW 292 8,5 C 22,8 C
10.06.2012 17:06 22,8 C 39 % 1009,8 hPa 0,0 l/m 3,2 km/h (1 Bft) W-NW 292 8,1 C 22,8 C
10.06.2012 17:11 22,9 C 38 % 1009,7 hPa 0,0 l/m 12,6 km/h (3 Bft) W-NW 292 7,8 C 22,9 C
10.06.2012 17:16 23,1 C 38 % 1009,6 hPa 0,0 l/m 0,0 km/h (0 Bft) N 360 8,0 C 23,1 C
10.06.2012 17:21 23,1 C 38 % 1009,5 hPa 0,0 l/m 3,6 km/h (1 Bft) W-NW 292 8,0 C 23,1 C
10.06.2012 17:26 22,8 C 37 % 1009,5 hPa 0,0 l/m 6,1 km/h (2 Bft) NO 45 7,3 C 22,8 C
10.06.2012 17:31 22,3 C 39 % 1009,5 hPa 0,0 l/m 5,8 km/h (2 Bft) W-NW 292 7,7 C 22,3 C
10.06.2012 17:36 22,5 C 39 % 1009,5 hPa 0,0 l/m 9,4 km/h (2 Bft) NW 315 7,8 C 22,5 C
10.06.2012 17:41 22,5 C 38 % 1009,4 hPa 0,0 l/m 10,1 km/h (2 Bft) W 270 7,5 C 22,5 C
10.06.2012 17:46 22,5 C 39 % 1009,4 hPa 0,0 l/m 13,0 km/h (3 Bft) W-NW 292 7,8 C 22,5 C
10.06.2012 17:51 22,6 C 38 % 1009,4 hPa 0,0 l/m 5,8 km/h (2 Bft) W 270 7,6 C 22,6 C
10.06.2012 17:56 22,8 C 39 % 1009,4 hPa 0,0 l/m 8,6 km/h (2 Bft) W 270 8,1 C 22,8 C
10.06.2012 18:01 22,9 C 38 % 1009,4 hPa 0,0 l/m 11,9 km/h (2 Bft) NW 315 7,8 C 22,9 C
10.06.2012 18:06 22,9 C 37 % 1009,5 hPa 0,0 l/m 6,5 km/h (2 Bft) W 270 7,4 C 22,9 C
10.06.2012 18:11 22,8 C 37 % 1009,4 hPa 0,0 l/m 4,7 km/h (1 Bft) NW 315 7,3 C 22,8 C
10.06.2012 18:16 22,9 C 38 % 1009,3 hPa 0,0 l/m 9,0 km/h (2 Bft) W 270 7,8 C 22,9 C
10.06.2012 18:21 23,1 C 38 % 1009,2 hPa 0,0 l/m 8,6 km/h (2 Bft) W-NW 292 8,0 C 23,1 C
10.06.2012 18:26 23,1 C 37 % 1009,1 hPa 0,0 l/m 9,0 km/h (2 Bft) W 270 7,6 C 23,1 C
10.06.2012 18:31 23,1 C 37 % 1009,1 hPa 0,0 l/m 7,2 km/h (2 Bft) W 270 7,6 C 23,1 C
10.06.2012 18:36 23,1 C 37 % 1009,1 hPa 0,0 l/m 5,8 km/h (2 Bft) S-SW 202 7,6 C 23,1 C
10.06.2012 18:41 23,1 C 38 % 1009,1 hPa 0,0 l/m 5,4 km/h (1 Bft) W-SW 247 8,0 C 23,1 C
10.06.2012 18:46 23,1 C 37 % 1009,1 hPa 0,0 l/m 7,2 km/h (2 Bft) W 270 7,6 C 23,1 C
10.06.2012 18:51 23,2 C 37 % 1009,1 hPa 0,0 l/m 2,2 km/h (1 Bft) W 270 7,7 C 23,2 C
10.06.2012 18:56 23,2 C 37 % 1009,1 hPa 0,0 l/m 4,0 km/h (1 Bft) W 270 7,7 C 23,2 C
10.06.2012 19:01 23,1 C 37 % 1009,1 hPa 0,0 l/m 3,2 km/h (1 Bft) W-SW 247 7,6 C 23,1 C
10.06.2012 19:06 23,1 C 37 % 1009,1 hPa 0,0 l/m 4,3 km/h (1 Bft) W 270 7,6 C 23,1 C
10.06.2012 19:11 23,1 C 37 % 1009,2 hPa 0,0 l/m 1,4 km/h (1 Bft) NW 315 7,6 C 23,1 C
10.06.2012 19:16 23,1 C 37 % 1009,1 hPa 0,0 l/m 4,3 km/h (1 Bft) W-NW 292 7,6 C 23,1 C
10.06.2012 19:21 22,9 C 38 % 1009,1 hPa 0,0 l/m 0,0 km/h (0 Bft) N 360 7,8 C 22,9 C
10.06.2012 19:26 22,4 C 39 % 1009,1 hPa 0,0 l/m 2,9 km/h (1 Bft) NO 45 7,8 C 22,4 C
10.06.2012 19:31 21,8 C 40 % 1009,1 hPa 0,0 l/m 1,4 km/h (1 Bft) O-NO 67 7,6 C 21,8 C
10.06.2012 19:36 21,8 C 41 % 1009,0 hPa 0,0 l/m 1,1 km/h (1 Bft) N-NW 337 8,0 C 21,8 C
10.06.2012 19:41 21,8 C 41 % 1009,0 hPa 0,0 l/m 0,0 km/h (0 Bft) NW 315 8,0 C 21,8 C
10.06.2012 19:46 22,0 C 41 % 1009,0 hPa 0,0 l/m 1,4 km/h (1 Bft) W 270 8,1 C 22,0 C
10.06.2012 19:51 22,3 C 40 % 1008,8 hPa 0,0 l/m 0,0 km/h (0 Bft) NW 315 8,0 C 22,3 C
10.06.2012 19:56 21,9 C 40 % 1008,8 hPa 0,0 l/m 0,0 km/h (0 Bft) N 360 7,7 C 21,9 C
10.06.2012 20:01 21,5 C 40 % 1009,0 hPa 0,0 l/m 0,0 km/h (0 Bft) N-NO 22 7,3 C 21,5 C
10.06.2012 20:06 21,1 C 42 % 1008,9 hPa 0,0 l/m 1,4 km/h (1 Bft) NW 315 7,7 C 21,1 C
10.06.2012 20:11 20,9 C 42 % 1008,8 hPa 0,0 l/m 0,0 km/h (0 Bft) W-NW 292 7,5 C 20,9 C
10.06.2012 20:16 20,5 C 43 % 1008,9 hPa 0,0 l/m 0,0 km/h (0 Bft) N-NO 22 7,5 C 20,5 C
10.06.2012 20:21 20,3 C 45 % 1008,7 hPa 0,0 l/m 0,0 km/h (0 Bft) N 360 8,0 C 20,3 C
10.06.2012 20:26 20,1 C 45 % 1008,7 hPa 0,0 l/m 0,0 km/h (0 Bft) N 360 7,8 C 20,1 C
10.06.2012 20:31 19,9 C 45 % 1008,7 hPa 0,0 l/m 0,0 km/h (0 Bft) N 360 7,6 C 19,9 C
10.06.2012 20:36 19,8 C 45 % 1008,6 hPa 0,0 l/m 0,0 km/h (0 Bft) N 360 7,5 C 19,8 C
10.06.2012 20:41 19,7 C 45 % 1008,7 hPa 0,0 l/m 0,0 km/h (0 Bft) N-NW 337 7,4 C 19,7 C
10.06.2012 20:46 19,8 C 45 % 1008,7 hPa 0,0 l/m 0,0 km/h (0 Bft) N 360 7,5 C 19,8 C
10.06.2012 20:51 19,9 C 45 % 1008,6 hPa 0,0 l/m 0,0 km/h (0 Bft) NW 315 7,6 C 19,9 C
10.06.2012 20:56 19,9 C 45 % 1008,7 hPa 0,0 l/m 0,0 km/h (0 Bft) NW 315 7,6 C 19,9 C
10.06.2012 21:01 19,9 C 46 % 1008,6 hPa 0,0 l/m 0,0 km/h (0 Bft) NW 315 7,9 C 19,9 C
10.06.2012 21:06 19,9 C 46 % 1008,7 hPa 0,0 l/m 0,0 km/h (0 Bft) NW 315 7,9 C 19,9 C
10.06.2012 21:11 19,8 C 46 % 1008,7 hPa 0,0 l/m 0,0 km/h (0 Bft) NW 315 7,8 C 19,8 C
10.06.2012 21:16 19,8 C 47 % 1008,7 hPa 0,0 l/m 0,0 km/h (0 Bft) N-NW 337 8,2 C 19,8 C
10.06.2012 21:21 19,4 C 48 % 1008,8 hPa 0,0 l/m 0,0 km/h (0 Bft) N-NW 337 8,1 C 19,4 C
10.06.2012 21:26 18,9 C 48 % 1008,8 hPa 0,0 l/m 0,0 km/h (0 Bft) N 360 7,6 C 18,9 C
10.06.2012 21:31 18,8 C 49 % 1008,7 hPa 0,0 l/m 0,0 km/h (0 Bft) N-NW 337 7,9 C 18,8 C
10.06.2012 21:36 18,6 C 50 % 1008,7 hPa 0,0 l/m 0,0 km/h (0 Bft) NW 315 8,0 C 18,6 C
10.06.2012 21:41 18,6 C 51 % 1008,7 hPa 0,0 l/m 0,0 km/h (0 Bft) NW 315 8,3 C 18,6 C
10.06.2012 21:46 18,5 C 51 % 1008,6 hPa 0,0 l/m 1,4 km/h (1 Bft) NW 315 8,2 C 18,5 C
10.06.2012 21:51 18,4 C 51 % 1008,6 hPa 0,0 l/m 0,0 km/h (0 Bft) NW 315 8,1 C 18,4 C
10.06.2012 21:56 18,4 C 52 % 1008,7 hPa 0,0 l/m 0,0 km/h (0 Bft) NW 315 8,4 C 18,4 C
10.06.2012 22:01 18,3 C 53 % 1008,7 hPa 0,0 l/m 0,0 km/h (0 Bft) NW 315 8,6 C 18,3 C
10.06.2012 22:06 18,2 C 53 % 1008,7 hPa 0,0 l/m 0,0 km/h (0 Bft) NW 315 8,5 C 18,2 C
10.06.2012 22:11 17,9 C 53 % 1008,7 hPa 0,0 l/m 0,0 km/h (0 Bft) NW 315 8,2 C 17,9 C
10.06.2012 22:16 17,8 C 54 % 1008,6 hPa 0,0 l/m 0,0 km/h (0 Bft) NW 315 8,4 C 17,8 C
10.06.2012 22:21 17,6 C 54 % 1008,6 hPa 0,0 l/m 0,0 km/h (0 Bft) NW 315 8,2 C 17,6 C
10.06.2012 22:26 17,4 C 55 % 1008,5 hPa 0,0 l/m 0,0 km/h (0 Bft) NW 315 8,3 C 17,4 C
10.06.2012 22:31 17,3 C 55 % 1008,5 hPa 0,0 l/m 0,0 km/h (0 Bft) N-NW 337 8,2 C 17,3 C
10.06.2012 22:36 17,1 C 55 % 1008,5 hPa 0,0 l/m 0,0 km/h (0 Bft) N-NW 337 8,0 C 17,1 C
10.06.2012 22:41 16,9 C 56 % 1008,5 hPa 0,0 l/m 0,0 km/h (0 Bft) NW 315 8,1 C 16,9 C
10.06.2012 22:46 17,0 C 55 % 1008,7 hPa 0,0 l/m 0,0 km/h (0 Bft) NW 315 7,9 C 17,0 C
10.06.2012 22:51 17,0 C 55 % 1008,5 hPa 0,0 l/m 0,0 km/h (0 Bft) NW 315 7,9 C 17,0 C
10.06.2012 22:56 17,1 C 55 % 1008,5 hPa 0,0 l/m 1,4 km/h (1 Bft) SW 225 8,0 C 17,1 C
10.06.2012 23:01 17,1 C 56 % 1008,4 hPa 0,0 l/m 0,0 km/h (0 Bft) SW 225 8,3 C 17,1 C
10.06.2012 23:06 16,9 C 57 % 1008,4 hPa 0,0 l/m 0,0 km/h (0 Bft) SW 225 8,3 C 16,9 C
10.06.2012 23:11 16,8 C 57 % 1008,4 hPa 0,0 l/m 0,0 km/h (0 Bft) SW 225 8,2 C 16,8 C
10.06.2012 23:16 16,6 C 58 % 1008,4 hPa 0,0 l/m 0,0 km/h (0 Bft) SW 225 8,3 C 16,6 C
10.06.2012 23:21 16,6 C 59 % 1008,5 hPa 0,0 l/m 0,0 km/h (0 Bft) SW 225 8,6 C 16,6 C
10.06.2012 23:26 16,6 C 59 % 1008,6 hPa 0,0 l/m 1,4 km/h (1 Bft) SW 225 8,6 C 16,6 C
10.06.2012 23:31 16,6 C 60 % 1008,6 hPa 0,0 l/m 3,2 km/h (1 Bft) NW 315 8,8 C 16,6 C
10.06.2012 23:36 16,3 C 61 % 1008,7 hPa 0,0 l/m 1,4 km/h (1 Bft) NO 45 8,8 C 16,3 C
10.06.2012 23:41 15,8 C 61 % 1008,7 hPa 0,0 l/m 0,0 km/h (0 Bft) NW 315 8,3 C 15,8 C
10.06.2012 23:46 15,8 C 62 % 1008,7 hPa 0,0 l/m 0,0 km/h (0 Bft) W 270 8,5 C 15,8 C
10.06.2012 23:51 15,8 C 62 % 1008,7 hPa 0,0 l/m 0,0 km/h (0 Bft) W 270 8,5 C 15,8 C
10.06.2012 23:56 15,9 C 62 % 1008,7 hPa 0,0 l/m 0,0 km/h (0 Bft) W 270 8,6 C 15,9 C
_ Min-Zeit 05:36 17:26 23:01 - 01:21 - - 00:01 05:36
Minimum _ 12,4 C 37 % 1008,4 hPa - 0,0 km/h (0 Bft) - - 5,3 C 12,4 C
_ Max-Zeit 18:51 05:51 00:36 00:01 10:16 - - 23:31 18:51
Maximum _ 23,2 C 68 % 1013,5 hPa 0,0 l/m 22,3 km/h
W-SW (4 Bft)
- - 8,8 C 23,2 C
Durchschnitt _ 18,5 C 50 % 1011,4 hPa #0,0 l/m 5,2 km/h (1 Bft) W-SW - 7,5 C 18,5 C
(c) by David Heller